Terminal Aerodrome Forecast
Issued by NWS Wilmington, NC

Home | Current Version | Previous Version | Text Only | Print | Product List | Glossary On
Versions: 1 2 3 4 5 6 7 8 9 10 11 12 13 14 15 16
584
FTUS42 KILM 211019 AAB
TAFMYR
TAF AMD
KMYR 211019Z 2110/2206 22003KT P6SM BKN080
      TEMPO 2110/2113 4SM BR SCT003
     FM211500 19006KT 3SM -RA BR OVC007
     FM212200 20008KT 3SM -RA BR BKN003 OVC007
     FM220400 21008KT 1/2SM FG VV004
      AMD LTD TO CLD VIS AND WIND TIL 211100=

USA.gov is the U.S. government's official web portal to all federal, state and local government web resources and services.